sensor_id;sensor_type;location;lat;lon;timestamp;P1;durP1;ratioP1;P2;durP2;ratioP2
41711;SDS011;27399;51.516;13.670;2023-08-17T00:01:26;6.90;;;2.53;;
41711;SDS011;27399;51.516;13.670;2023-08-17T00:03:52;4.47;;;1.85;;
41711;SDS011;27399;51.516;13.670;2023-08-17T00:06:18;8.32;;;2.20;;
41711;SDS011;27399;51.516;13.670;2023-08-17T00:08:43;6.05;;;2.67;;
41711;SDS011;27399;51.516;13.670;2023-08-17T00:11:09;8.80;;;2.30;;
41711;SDS011;27399;51.516;13.670;2023-08-17T00:13:35;4.32;;;2.05;;
41711;SDS011;27399;51.516;13.670;2023-08-17T00:16:00;7.28;;;2.15;;
41711;SDS011;27399;51.516;13.670;2023-08-17T00:18:27;5.43;;;2.33;;
41711;SDS011;27399;51.516;13.670;2023-08-17T00:20:52;7.60;;;2.28;;
41711;SDS011;27399;51.516;13.670;2023-08-17T00:23:18;4.40;;;1.95;;
41711;SDS011;27399;51.516;13.670;2023-08-17T00:25:45;6.65;;;1.92;;
41711;SDS011;27399;51.516;13.670;2023-08-17T00:28:13;7.88;;;2.25;;
41711;SDS011;27399;51.516;13.670;2023-08-17T00:30:39;20.52;;;2.30;;
41711;SDS011;27399;51.516;13.670;2023-08-17T00:33:04;5.03;;;2.40;;
41711;SDS011;27399;51.516;13.670;2023-08-17T00:35:31;2.15;;;1.95;;
41711;SDS011;27399;51.516;13.670;2023-08-17T00:37:57;8.55;;;2.33;;
41711;SDS011;27399;51.516;13.670;2023-08-17T00:40:24;5.40;;;2.42;;
41711;SDS011;27399;51.516;13.670;2023-08-17T00:42:50;6.63;;;2.13;;
41711;SDS011;27399;51.516;13.670;2023-08-17T00:45:15;5.80;;;2.30;;
41711;SDS011;27399;51.516;13.670;2023-08-17T00:47:41;4.15;;;2.05;;
41711;SDS011;27399;51.516;13.670;2023-08-17T00:50:07;4.85;;;2.95;;
41711;SDS011;27399;51.516;13.670;2023-08-17T00:52:33;8.60;;;3.15;;
41711;SDS011;27399;51.516;13.670;2023-08-17T00:54:59;7.97;;;1.95;;
41711;SDS011;27399;51.516;13.670;2023-08-17T00:57:26;7.05;;;1.70;;
41711;SDS011;27399;51.516;13.670;2023-08-17T00:59:52;4.45;;;1.92;;
41711;SDS011;27399;51.516;13.670;2023-08-17T01:02:18;5.00;;;2.20;;
41711;SDS011;27399;51.516;13.670;2023-08-17T01:04:44;3.67;;;1.65;;
41711;SDS011;27399;51.516;13.670;2023-08-17T01:07:10;3.70;;;2.88;;
41711;SDS011;27399;51.516;13.670;2023-08-17T01:09:36;3.55;;;2.00;;
41711;SDS011;27399;51.516;13.670;2023-08-17T01:12:19;3.00;;;1.85;;
41711;SDS011;27399;51.516;13.670;2023-08-17T01:17:52;5.15;;;2.45;;
41711;SDS011;27399;51.516;13.670;2023-08-17T01:20:23;3.53;;;1.73;;
41711;SDS011;27399;51.516;13.670;2023-08-17T01:22:50;2.25;;;1.45;;
41711;SDS011;27399;51.516;13.670;2023-08-17T01:25:22;3.90;;;1.80;;
41711;SDS011;27399;51.516;13.670;2023-08-17T01:27:48;8.77;;;2.22;;
41711;SDS011;27399;51.516;13.670;2023-08-17T01:30:14;4.45;;;1.70;;
41711;SDS011;27399;51.516;13.670;2023-08-17T01:35:16;6.35;;;2.17;;
41711;SDS011;27399;51.516;13.670;2023-08-17T01:37:50;3.25;;;2.03;;
41711;SDS011;27399;51.516;13.670;2023-08-17T01:40:18;4.43;;;1.85;;
41711;SDS011;27399;51.516;13.670;2023-08-17T01:42:44;7.25;;;2.08;;
41711;SDS011;27399;51.516;13.670;2023-08-17T01:45:11;3.13;;;1.90;;
41711;SDS011;27399;51.516;13.670;2023-08-17T01:47:37;4.25;;;2.10;;
41711;SDS011;27399;51.516;13.670;2023-08-17T01:50:02;8.10;;;2.85;;
41711;SDS011;27399;51.516;13.670;2023-08-17T01:52:28;6.63;;;2.17;;
41711;SDS011;27399;51.516;13.670;2023-08-17T01:54:54;4.53;;;2.22;;
41711;SDS011;27399;51.516;13.670;2023-08-17T01:57:19;2.83;;;1.77;;
41711;SDS011;27399;51.516;13.670;2023-08-17T01:59:45;3.13;;;1.88;;
41711;SDS011;27399;51.516;13.670;2023-08-17T02:02:11;3.70;;;2.10;;
41711;SDS011;27399;51.516;13.670;2023-08-17T02:04:39;5.13;;;2.50;;
41711;SDS011;27399;51.516;13.670;2023-08-17T02:07:05;4.18;;;1.92;;
41711;SDS011;27399;51.516;13.670;2023-08-17T02:09:31;6.43;;;3.08;;
41711;SDS011;27399;51.516;13.670;2023-08-17T02:11:56;5.90;;;2.00;;
41711;SDS011;27399;51.516;13.670;2023-08-17T02:14:22;8.95;;;2.50;;
41711;SDS011;27399;51.516;13.670;2023-08-17T02:16:48;2.63;;;1.70;;
41711;SDS011;27399;51.516;13.670;2023-08-17T02:19:14;3.95;;;1.90;;
41711;SDS011;27399;51.516;13.670;2023-08-17T02:21:39;4.65;;;2.05;;
41711;SDS011;27399;51.516;13.670;2023-08-17T02:24:05;12.05;;;2.92;;
41711;SDS011;27399;51.516;13.670;2023-08-17T02:26:31;7.53;;;2.10;;
41711;SDS011;27399;51.516;13.670;2023-08-17T02:28:56;3.78;;;1.70;;
41711;SDS011;27399;51.516;13.670;2023-08-17T02:31:22;3.35;;;2.08;;
41711;SDS011;27399;51.516;13.670;2023-08-17T02:33:48;3.88;;;2.15;;
41711;SDS011;27399;51.516;13.670;2023-08-17T02:36:14;3.72;;;2.00;;
41711;SDS011;27399;51.516;13.670;2023-08-17T02:38:39;4.78;;;2.22;;
41711;SDS011;27399;51.516;13.670;2023-08-17T02:41:05;5.18;;;1.98;;
41711;SDS011;27399;51.516;13.670;2023-08-17T02:43:31;5.53;;;2.35;;
41711;SDS011;27399;51.516;13.670;2023-08-17T02:45:56;4.65;;;2.88;;
41711;SDS011;27399;51.516;13.670;2023-08-17T02:48:22;3.13;;;1.70;;
41711;SDS011;27399;51.516;13.670;2023-08-17T02:50:47;5.00;;;1.90;;
41711;SDS011;27399;51.516;13.670;2023-08-17T02:53:13;8.95;;;2.13;;
41711;SDS011;27399;51.516;13.670;2023-08-17T02:55:39;4.95;;;2.30;;
41711;SDS011;27399;51.516;13.670;2023-08-17T02:58:04;8.23;;;2.03;;
41711;SDS011;27399;51.516;13.670;2023-08-17T03:00:30;6.13;;;2.50;;
41711;SDS011;27399;51.516;13.670;2023-08-17T03:02:55;9.27;;;2.10;;
41711;SDS011;27399;51.516;13.670;2023-08-17T03:05:21;4.13;;;2.05;;
41711;SDS011;27399;51.516;13.670;2023-08-17T03:07:46;3.83;;;2.13;;
41711;SDS011;27399;51.516;13.670;2023-08-17T03:10:12;3.38;;;2.00;;
41711;SDS011;27399;51.516;13.670;2023-08-17T03:12:38;6.88;;;2.13;;
41711;SDS011;27399;51.516;13.670;2023-08-17T03:15:06;6.13;;;1.98;;
41711;SDS011;27399;51.516;13.670;2023-08-17T03:17:32;13.02;;;2.40;;
41711;SDS011;27399;51.516;13.670;2023-08-17T03:19:58;6.47;;;2.17;;
41711;SDS011;27399;51.516;13.670;2023-08-17T03:22:25;4.07;;;1.55;;
41711;SDS011;27399;51.516;13.670;2023-08-17T03:24:50;3.33;;;2.00;;
41711;SDS011;27399;51.516;13.670;2023-08-17T03:27:16;8.15;;;1.98;;
41711;SDS011;27399;51.516;13.670;2023-08-17T03:29:42;11.38;;;2.65;;
41711;SDS011;27399;51.516;13.670;2023-08-17T03:32:07;7.68;;;2.80;;
41711;SDS011;27399;51.516;13.670;2023-08-17T03:34:33;7.07;;;2.20;;
41711;SDS011;27399;51.516;13.670;2023-08-17T03:36:59;6.53;;;2.13;;
41711;SDS011;27399;51.516;13.670;2023-08-17T03:39:24;4.70;;;2.05;;
41711;SDS011;27399;51.516;13.670;2023-08-17T03:41:50;7.65;;;2.25;;
41711;SDS011;27399;51.516;13.670;2023-08-17T03:44:16;2.95;;;1.75;;
41711;SDS011;27399;51.516;13.670;2023-08-17T03:46:42;4.88;;;2.55;;
41711;SDS011;27399;51.516;13.670;2023-08-17T03:49:07;4.30;;;1.92;;
41711;SDS011;27399;51.516;13.670;2023-08-17T03:51:33;8.73;;;2.42;;
41711;SDS011;27399;51.516;13.670;2023-08-17T03:53:59;9.02;;;2.47;;
41711;SDS011;27399;51.516;13.670;2023-08-17T03:56:24;2.95;;;2.13;;
41711;SDS011;27399;51.516;13.670;2023-08-17T03:58:50;9.82;;;2.60;;
41711;SDS011;27399;51.516;13.670;2023-08-17T04:01:18;3.03;;;2.00;;
41711;SDS011;27399;51.516;13.670;2023-08-17T04:03:43;5.15;;;2.15;;
41711;SDS011;27399;51.516;13.670;2023-08-17T04:06:09;3.85;;;2.20;;
41711;SDS011;27399;51.516;13.670;2023-08-17T04:08:38;7.88;;;1.98;;
41711;SDS011;27399;51.516;13.670;2023-08-17T04:11:04;5.05;;;1.98;;
41711;SDS011;27399;51.516;13.670;2023-08-17T04:13:30;7.32;;;2.10;;
41711;SDS011;27399;51.516;13.670;2023-08-17T04:15:57;12.48;;;2.88;;
41711;SDS011;27399;51.516;13.670;2023-08-17T04:18:22;2.53;;;1.85;;
41711;SDS011;27399;51.516;13.670;2023-08-17T04:20:48;8.85;;;2.55;;
41711;SDS011;27399;51.516;13.670;2023-08-17T04:23:15;6.50;;;2.13;;
41711;SDS011;27399;51.516;13.670;2023-08-17T04:25:41;6.10;;;2.25;;
41711;SDS011;27399;51.516;13.670;2023-08-17T04:28:07;17.25;;;3.70;;
41711;SDS011;27399;51.516;13.670;2023-08-17T04:30:32;3.22;;;2.17;;
41711;SDS011;27399;51.516;13.670;2023-08-17T04:32:58;7.90;;;2.20;;
41711;SDS011;27399;51.516;13.670;2023-08-17T04:35:24;6.35;;;2.28;;
41711;SDS011;27399;51.516;13.670;2023-08-17T04:37:49;6.35;;;2.13;;
41711;SDS011;27399;51.516;13.670;2023-08-17T04:40:15;8.10;;;2.60;;
41711;SDS011;27399;51.516;13.670;2023-08-17T04:42:41;4.57;;;1.90;;
41711;SDS011;27399;51.516;13.670;2023-08-17T04:45:07;5.80;;;1.95;;
41711;SDS011;27399;51.516;13.670;2023-08-17T04:47:33;3.30;;;2.17;;
41711;SDS011;27399;51.516;13.670;2023-08-17T04:49:59;6.60;;;2.25;;
41711;SDS011;27399;51.516;13.670;2023-08-17T04:52:24;6.63;;;2.55;;
41711;SDS011;27399;51.516;13.670;2023-08-17T04:54:50;4.95;;;2.35;;
41711;SDS011;27399;51.516;13.670;2023-08-17T04:57:15;4.07;;;2.03;;
41711;SDS011;27399;51.516;13.670;2023-08-17T04:59:42;5.45;;;2.42;;
41711;SDS011;27399;51.516;13.670;2023-08-17T05:02:08;3.28;;;2.17;;
41711;SDS011;27399;51.516;13.670;2023-08-17T05:04:34;5.90;;;2.78;;
41711;SDS011;27399;51.516;13.670;2023-08-17T05:07:01;7.93;;;2.17;;
41711;SDS011;27399;51.516;13.670;2023-08-17T05:09:27;6.72;;;2.55;;
41711;SDS011;27399;51.516;13.670;2023-08-17T05:11:52;3.08;;;2.22;;
41711;SDS011;27399;51.516;13.670;2023-08-17T05:14:18;4.10;;;2.47;;
41711;SDS011;27399;51.516;13.670;2023-08-17T05:16:44;3.58;;;2.28;;
41711;SDS011;27399;51.516;13.670;2023-08-17T05:19:09;7.93;;;2.92;;
41711;SDS011;27399;51.516;13.670;2023-08-17T05:21:35;3.40;;;2.75;;
41711;SDS011;27399;51.516;13.670;2023-08-17T05:24:01;10.50;;;3.03;;
41711;SDS011;27399;51.516;13.670;2023-08-17T05:26:27;7.65;;;2.50;;
41711;SDS011;27399;51.516;13.670;2023-08-17T05:28:52;9.05;;;2.70;;
41711;SDS011;27399;51.516;13.670;2023-08-17T05:31:18;6.45;;;2.95;;
41711;SDS011;27399;51.516;13.670;2023-08-17T05:33:43;7.13;;;3.30;;
41711;SDS011;27399;51.516;13.670;2023-08-17T05:36:09;5.90;;;2.20;;
41711;SDS011;27399;51.516;13.670;2023-08-17T05:38:35;3.85;;;2.10;;
41711;SDS011;27399;51.516;13.670;2023-08-17T05:41:00;5.85;;;2.15;;
41711;SDS011;27399;51.516;13.670;2023-08-17T05:43:27;7.90;;;3.13;;
41711;SDS011;27399;51.516;13.670;2023-08-17T05:45:52;4.65;;;2.88;;
41711;SDS011;27399;51.516;13.670;2023-08-17T05:48:19;4.72;;;2.55;;
41711;SDS011;27399;51.516;13.670;2023-08-17T05:50:48;3.95;;;2.10;;
41711;SDS011;27399;51.516;13.670;2023-08-17T05:53:14;3.22;;;2.30;;
41711;SDS011;27399;51.516;13.670;2023-08-17T05:55:39;5.50;;;2.58;;
41711;SDS011;27399;51.516;13.670;2023-08-17T05:58:05;8.25;;;2.20;;
41711;SDS011;27399;51.516;13.670;2023-08-17T06:00:31;4.85;;;2.35;;
41711;SDS011;27399;51.516;13.670;2023-08-17T06:02:56;6.93;;;2.50;;
41711;SDS011;27399;51.516;13.670;2023-08-17T06:05:26;3.13;;;2.37;;
41711;SDS011;27399;51.516;13.670;2023-08-17T06:07:53;4.72;;;2.40;;
41711;SDS011;27399;51.516;13.670;2023-08-17T06:10:19;4.97;;;2.42;;
41711;SDS011;27399;51.516;13.670;2023-08-17T06:12:45;2.88;;;2.10;;
41711;SDS011;27399;51.516;13.670;2023-08-17T06:15:11;4.05;;;2.40;;
41711;SDS011;27399;51.516;13.670;2023-08-17T06:17:37;3.30;;;2.00;;
41711;SDS011;27399;51.516;13.670;2023-08-17T06:20:02;5.97;;;2.35;;
41711;SDS011;27399;51.516;13.670;2023-08-17T06:22:28;4.22;;;2.30;;
41711;SDS011;27399;51.516;13.670;2023-08-17T06:24:54;7.65;;;2.17;;
41711;SDS011;27399;51.516;13.670;2023-08-17T06:27:19;3.85;;;2.35;;
41711;SDS011;27399;51.516;13.670;2023-08-17T06:29:45;3.63;;;2.53;;
41711;SDS011;27399;51.516;13.670;2023-08-17T06:32:10;4.75;;;2.38;;
41711;SDS011;27399;51.516;13.670;2023-08-17T06:34:36;5.65;;;2.88;;
41711;SDS011;27399;51.516;13.670;2023-08-17T06:37:02;6.53;;;2.45;;
41711;SDS011;27399;51.516;13.670;2023-08-17T06:39:28;3.35;;;2.63;;
41711;SDS011;27399;51.516;13.670;2023-08-17T06:41:54;4.75;;;2.53;;
41711;SDS011;27399;51.516;13.670;2023-08-17T06:44:20;3.50;;;2.50;;
41711;SDS011;27399;51.516;13.670;2023-08-17T06:46:46;4.97;;;2.55;;
41711;SDS011;27399;51.516;13.670;2023-08-17T06:49:12;4.22;;;2.55;;
41711;SDS011;27399;51.516;13.670;2023-08-17T06:51:38;6.05;;;3.17;;
41711;SDS011;27399;51.516;13.670;2023-08-17T06:54:04;3.22;;;2.33;;
41711;SDS011;27399;51.516;13.670;2023-08-17T06:56:30;7.97;;;3.05;;
41711;SDS011;27399;51.516;13.670;2023-08-17T06:58:56;5.35;;;2.58;;
41711;SDS011;27399;51.516;13.670;2023-08-17T07:01:22;7.78;;;2.88;;
41711;SDS011;27399;51.516;13.670;2023-08-17T07:03:47;3.80;;;2.33;;
41711;SDS011;27399;51.516;13.670;2023-08-17T07:06:13;8.02;;;2.45;;
41711;SDS011;27399;51.516;13.670;2023-08-17T07:08:38;4.90;;;2.72;;
41711;SDS011;27399;51.516;13.670;2023-08-17T07:11:04;5.85;;;2.55;;
41711;SDS011;27399;51.516;13.670;2023-08-17T07:13:31;4.70;;;2.80;;
41711;SDS011;27399;51.516;13.670;2023-08-17T07:15:57;6.28;;;3.13;;
41711;SDS011;27399;51.516;13.670;2023-08-17T07:18:22;3.65;;;2.50;;
41711;SDS011;27399;51.516;13.670;2023-08-17T07:20:48;5.15;;;2.67;;
41711;SDS011;27399;51.516;13.670;2023-08-17T07:23:14;4.03;;;2.30;;
41711;SDS011;27399;51.516;13.670;2023-08-17T07:25:40;9.35;;;3.80;;
41711;SDS011;27399;51.516;13.670;2023-08-17T07:28:06;6.90;;;2.40;;
41711;SDS011;27399;51.516;13.670;2023-08-17T07:30:32;3.00;;;2.40;;
41711;SDS011;27399;51.516;13.670;2023-08-17T07:32:57;7.05;;;2.78;;
41711;SDS011;27399;51.516;13.670;2023-08-17T07:35:23;5.60;;;2.80;;
41711;SDS011;27399;51.516;13.670;2023-08-17T07:37:48;8.60;;;2.67;;
41711;SDS011;27399;51.516;13.670;2023-08-17T07:40:14;4.18;;;2.97;;
41711;SDS011;27399;51.516;13.670;2023-08-17T07:42:40;3.65;;;2.72;;
41711;SDS011;27399;51.516;13.670;2023-08-17T07:45:05;5.40;;;2.40;;
41711;SDS011;27399;51.516;13.670;2023-08-17T07:47:33;8.98;;;3.83;;
41711;SDS011;27399;51.516;13.670;2023-08-17T07:52:29;5.00;;;3.22;;
41711;SDS011;27399;51.516;13.670;2023-08-17T07:54:54;7.32;;;3.47;;
41711;SDS011;27399;51.516;13.670;2023-08-17T07:57:20;6.82;;;3.50;;
41711;SDS011;27399;51.516;13.670;2023-08-17T07:59:45;7.63;;;3.53;;
41711;SDS011;27399;51.516;13.670;2023-08-17T08:02:11;4.82;;;3.42;;
41711;SDS011;27399;51.516;13.670;2023-08-17T08:04:36;4.03;;;3.28;;
41711;SDS011;27399;51.516;13.670;2023-08-17T08:07:02;5.57;;;3.33;;
41711;SDS011;27399;51.516;13.670;2023-08-17T08:09:28;6.63;;;3.15;;
41711;SDS011;27399;51.516;13.670;2023-08-17T08:11:53;4.05;;;2.85;;
41711;SDS011;27399;51.516;13.670;2023-08-17T08:14:19;4.93;;;2.78;;
41711;SDS011;27399;51.516;13.670;2023-08-17T08:16:44;4.07;;;2.90;;
41711;SDS011;27399;51.516;13.670;2023-08-17T08:19:10;5.75;;;2.90;;
41711;SDS011;27399;51.516;13.670;2023-08-17T08:21:35;8.48;;;3.63;;
41711;SDS011;27399;51.516;13.670;2023-08-17T08:24:01;6.00;;;2.80;;
41711;SDS011;27399;51.516;13.670;2023-08-17T08:26:27;8.02;;;3.35;;
41711;SDS011;27399;51.516;13.670;2023-08-17T08:28:52;4.60;;;2.85;;
41711;SDS011;27399;51.516;13.670;2023-08-17T08:31:18;5.38;;;3.03;;
41711;SDS011;27399;51.516;13.670;2023-08-17T08:33:43;5.47;;;3.17;;
41711;SDS011;27399;51.516;13.670;2023-08-17T08:36:09;3.92;;;3.13;;
41711;SDS011;27399;51.516;13.670;2023-08-17T08:38:35;5.05;;;3.00;;
41711;SDS011;27399;51.516;13.670;2023-08-17T08:41:01;6.43;;;2.92;;
41711;SDS011;27399;51.516;13.670;2023-08-17T08:43:27;8.00;;;3.30;;
41711;SDS011;27399;51.516;13.670;2023-08-17T08:45:53;4.90;;;3.35;;
41711;SDS011;27399;51.516;13.670;2023-08-17T08:48:20;4.97;;;3.17;;
41711;SDS011;27399;51.516;13.670;2023-08-17T08:50:47;4.40;;;2.90;;
41711;SDS011;27399;51.516;13.670;2023-08-17T08:53:15;7.03;;;3.42;;
41711;SDS011;27399;51.516;13.670;2023-08-17T08:55:49;4.53;;;2.97;;
41711;SDS011;27399;51.516;13.670;2023-08-17T08:58:23;4.35;;;2.70;;
41711;SDS011;27399;51.516;13.670;2023-08-17T09:00:50;3.88;;;2.92;;
41711;SDS011;27399;51.516;13.670;2023-08-17T09:03:17;4.68;;;2.90;;
41711;SDS011;27399;51.516;13.670;2023-08-17T09:05:47;5.47;;;2.78;;
41711;SDS011;27399;51.516;13.670;2023-08-17T09:08:14;3.83;;;2.60;;
41711;SDS011;27399;51.516;13.670;2023-08-17T09:10:41;5.68;;;2.97;;
41711;SDS011;27399;51.516;13.670;2023-08-17T09:13:07;4.13;;;2.60;;
41711;SDS011;27399;51.516;13.670;2023-08-17T09:15:34;8.13;;;2.63;;
41711;SDS011;27399;51.516;13.670;2023-08-17T09:18:00;5.80;;;2.90;;
41711;SDS011;27399;51.516;13.670;2023-08-17T09:20:41;5.40;;;2.97;;
41711;SDS011;27399;51.516;13.670;2023-08-17T09:23:13;5.53;;;2.78;;
41711;SDS011;27399;51.516;13.670;2023-08-17T09:25:45;3.92;;;2.58;;
41711;SDS011;27399;51.516;13.670;2023-08-17T09:28:12;7.88;;;3.35;;
41711;SDS011;27399;51.516;13.670;2023-08-17T09:30:49;3.38;;;2.47;;
41711;SDS011;27399;51.516;13.670;2023-08-17T09:33:19;3.38;;;2.25;;
41711;SDS011;27399;51.516;13.670;2023-08-17T09:35:52;6.10;;;2.53;;
41711;SDS011;27399;51.516;13.670;2023-08-17T09:38:18;3.35;;;2.08;;
41711;SDS011;27399;51.516;13.670;2023-08-17T09:40:45;3.35;;;2.63;;
41711;SDS011;27399;51.516;13.670;2023-08-17T09:43:11;4.68;;;2.80;;
41711;SDS011;27399;51.516;13.670;2023-08-17T09:45:38;5.13;;;2.70;;
41711;SDS011;27399;51.516;13.670;2023-08-17T09:48:05;2.65;;;2.05;;
41711;SDS011;27399;51.516;13.670;2023-08-17T09:50:32;6.15;;;2.60;;
41711;SDS011;27399;51.516;13.670;2023-08-17T09:52:58;6.90;;;2.80;;
41711;SDS011;27399;51.516;13.670;2023-08-17T09:55:24;3.20;;;2.45;;
41711;SDS011;27399;51.516;13.670;2023-08-17T09:57:50;3.53;;;2.33;;
41711;SDS011;27399;51.516;13.670;2023-08-17T10:00:20;3.50;;;2.40;;
41711;SDS011;27399;51.516;13.670;2023-08-17T10:02:49;6.65;;;2.60;;
41711;SDS011;27399;51.516;13.670;2023-08-17T10:05:18;4.00;;;2.40;;
41711;SDS011;27399;51.516;13.670;2023-08-17T10:07:53;4.65;;;3.15;;
41711;SDS011;27399;51.516;13.670;2023-08-17T10:10:22;4.32;;;2.40;;
41711;SDS011;27399;51.516;13.670;2023-08-17T10:13:10;4.38;;;2.83;;
41711;SDS011;27399;51.516;13.670;2023-08-17T10:15:41;6.22;;;2.92;;
41711;SDS011;27399;51.516;13.670;2023-08-17T10:21:29;3.55;;;2.78;;
41711;SDS011;27399;51.516;13.670;2023-08-17T10:24:01;3.15;;;2.67;;
41711;SDS011;27399;51.516;13.670;2023-08-17T10:26:28;4.45;;;3.25;;
41711;SDS011;27399;51.516;13.670;2023-08-17T10:28:54;4.25;;;3.25;;
41711;SDS011;27399;51.516;13.670;2023-08-17T10:31:24;4.32;;;3.17;;
41711;SDS011;27399;51.516;13.670;2023-08-17T10:33:50;4.68;;;3.38;;
41711;SDS011;27399;51.516;13.670;2023-08-17T10:36:16;5.38;;;3.72;;
41711;SDS011;27399;51.516;13.670;2023-08-17T10:38:43;5.90;;;3.10;;
41711;SDS011;27399;51.516;13.670;2023-08-17T10:41:09;5.55;;;3.30;;
41711;SDS011;27399;51.516;13.670;2023-08-17T10:46:20;4.57;;;3.25;;
41711;SDS011;27399;51.516;13.670;2023-08-17T10:48:46;6.70;;;3.20;;
41711;SDS011;27399;51.516;13.670;2023-08-17T10:51:11;5.43;;;3.42;;
41711;SDS011;27399;51.516;13.670;2023-08-17T10:53:38;6.78;;;3.38;;
41711;SDS011;27399;51.516;13.670;2023-08-17T10:56:10;4.55;;;3.35;;
41711;SDS011;27399;51.516;13.670;2023-08-17T10:58:38;5.50;;;4.10;;
41711;SDS011;27399;51.516;13.670;2023-08-17T11:01:04;8.05;;;3.60;;
41711;SDS011;27399;51.516;13.670;2023-08-17T11:03:30;6.97;;;3.45;;
41711;SDS011;27399;51.516;13.670;2023-08-17T11:05:56;7.32;;;3.72;;
41711;SDS011;27399;51.516;13.670;2023-08-17T11:11:03;7.05;;;3.42;;
41711;SDS011;27399;51.516;13.670;2023-08-17T11:13:43;4.10;;;3.13;;
41711;SDS011;27399;51.516;13.670;2023-08-17T11:16:10;6.88;;;3.70;;
41711;SDS011;27399;51.516;13.670;2023-08-17T11:18:37;9.52;;;3.78;;
41711;SDS011;27399;51.516;13.670;2023-08-17T11:21:04;4.88;;;3.13;;
41711;SDS011;27399;51.516;13.670;2023-08-17T11:23:31;7.68;;;3.85;;
41711;SDS011;27399;51.516;13.670;2023-08-17T11:25:58;6.47;;;3.42;;
41711;SDS011;27399;51.516;13.670;2023-08-17T11:28:25;5.80;;;3.90;;
41711;SDS011;27399;51.516;13.670;2023-08-17T11:31:00;6.53;;;3.63;;
41711;SDS011;27399;51.516;13.670;2023-08-17T11:33:28;4.93;;;3.47;;
41711;SDS011;27399;51.516;13.670;2023-08-17T11:35:58;8.02;;;4.20;;
41711;SDS011;27399;51.516;13.670;2023-08-17T11:38:29;5.18;;;3.90;;
41711;SDS011;27399;51.516;13.670;2023-08-17T11:40:55;5.72;;;4.00;;
41711;SDS011;27399;51.516;13.670;2023-08-17T11:45:52;5.45;;;3.63;;
41711;SDS011;27399;51.516;13.670;2023-08-17T11:48:19;5.13;;;3.35;;
41711;SDS011;27399;51.516;13.670;2023-08-17T11:50:47;7.53;;;3.75;;
41711;SDS011;27399;51.516;13.670;2023-08-17T11:53:14;4.50;;;3.30;;
41711;SDS011;27399;51.516;13.670;2023-08-17T11:55:39;5.68;;;3.50;;
41711;SDS011;27399;51.516;13.670;2023-08-17T11:58:05;4.53;;;3.28;;
41711;SDS011;27399;51.516;13.670;2023-08-17T12:00:35;6.90;;;3.50;;
41711;SDS011;27399;51.516;13.670;2023-08-17T12:03:04;5.32;;;3.88;;
41711;SDS011;27399;51.516;13.670;2023-08-17T12:05:30;6.95;;;3.83;;
41711;SDS011;27399;51.516;13.670;2023-08-17T12:07:58;7.35;;;3.67;;
41711;SDS011;27399;51.516;13.670;2023-08-17T12:10:27;5.03;;;3.60;;
41711;SDS011;27399;51.516;13.670;2023-08-17T12:12:53;4.70;;;3.78;;
41711;SDS011;27399;51.516;13.670;2023-08-17T12:15:22;4.38;;;3.85;;
41711;SDS011;27399;51.516;13.670;2023-08-17T12:17:49;5.68;;;3.80;;
41711;SDS011;27399;51.516;13.670;2023-08-17T12:20:18;23.67;;;5.53;;
41711;SDS011;27399;51.516;13.670;2023-08-17T12:22:45;7.60;;;4.03;;
41711;SDS011;27399;51.516;13.670;2023-08-17T12:25:12;5.63;;;3.80;;
41711;SDS011;27399;51.516;13.670;2023-08-17T12:27:38;5.43;;;3.97;;
41711;SDS011;27399;51.516;13.670;2023-08-17T12:30:04;8.43;;;3.85;;
41711;SDS011;27399;51.516;13.670;2023-08-17T12:32:31;5.25;;;4.10;;
41711;SDS011;27399;51.516;13.670;2023-08-17T12:34:56;7.50;;;4.20;;
41711;SDS011;27399;51.516;13.670;2023-08-17T12:37:22;6.75;;;3.90;;
41711;SDS011;27399;51.516;13.670;2023-08-17T12:39:48;6.70;;;4.63;;
41711;SDS011;27399;51.516;13.670;2023-08-17T12:42:14;6.68;;;4.68;;
41711;SDS011;27399;51.516;13.670;2023-08-17T12:44:40;10.05;;;4.95;;
41711;SDS011;27399;51.516;13.670;2023-08-17T12:47:06;5.72;;;4.20;;
41711;SDS011;27399;51.516;13.670;2023-08-17T12:49:31;6.25;;;4.15;;
41711;SDS011;27399;51.516;13.670;2023-08-17T12:51:57;6.95;;;4.60;;
41711;SDS011;27399;51.516;13.670;2023-08-17T12:54:23;7.45;;;4.28;;
41711;SDS011;27399;51.516;13.670;2023-08-17T12:56:48;7.82;;;4.43;;
41711;SDS011;27399;51.516;13.670;2023-08-17T12:59:14;8.77;;;4.40;;
41711;SDS011;27399;51.516;13.670;2023-08-17T13:01:40;8.13;;;3.70;;
41711;SDS011;27399;51.516;13.670;2023-08-17T13:04:05;7.22;;;4.10;;
41711;SDS011;27399;51.516;13.670;2023-08-17T13:06:31;6.65;;;4.13;;
41711;SDS011;27399;51.516;13.670;2023-08-17T13:08:57;6.50;;;4.50;;
41711;SDS011;27399;51.516;13.670;2023-08-17T13:11:23;6.45;;;4.35;;
41711;SDS011;27399;51.516;13.670;2023-08-17T13:13:48;7.35;;;4.15;;
41711;SDS011;27399;51.516;13.670;2023-08-17T13:16:14;3.92;;;3.50;;
41711;SDS011;27399;51.516;13.670;2023-08-17T13:18:39;6.60;;;4.10;;
41711;SDS011;27399;51.516;13.670;2023-08-17T13:21:05;9.02;;;4.13;;
41711;SDS011;27399;51.516;13.670;2023-08-17T13:23:31;5.03;;;3.65;;
41711;SDS011;27399;51.516;13.670;2023-08-17T13:25:57;10.43;;;4.40;;
41711;SDS011;27399;51.516;13.670;2023-08-17T13:28:23;8.40;;;4.32;;
41711;SDS011;27399;51.516;13.670;2023-08-17T13:30:49;7.72;;;4.78;;
41711;SDS011;27399;51.516;13.670;2023-08-17T13:33:14;7.53;;;4.50;;
41711;SDS011;27399;51.516;13.670;2023-08-17T13:35:41;5.68;;;4.35;;
41711;SDS011;27399;51.516;13.670;2023-08-17T13:38:07;11.18;;;4.22;;
41711;SDS011;27399;51.516;13.670;2023-08-17T13:40:33;6.75;;;4.60;;
41711;SDS011;27399;51.516;13.670;2023-08-17T13:42:59;8.32;;;4.43;;
41711;SDS011;27399;51.516;13.670;2023-08-17T13:45:25;8.45;;;4.55;;
41711;SDS011;27399;51.516;13.670;2023-08-17T13:47:52;6.88;;;4.57;;
41711;SDS011;27399;51.516;13.670;2023-08-17T13:50:17;7.28;;;4.68;;
41711;SDS011;27399;51.516;13.670;2023-08-17T13:52:44;5.72;;;4.25;;
41711;SDS011;27399;51.516;13.670;2023-08-17T13:55:09;6.65;;;4.28;;
41711;SDS011;27399;51.516;13.670;2023-08-17T13:57:35;6.70;;;4.70;;
41711;SDS011;27399;51.516;13.670;2023-08-17T14:00:01;5.95;;;4.28;;
41711;SDS011;27399;51.516;13.670;2023-08-17T14:02:29;5.85;;;4.13;;
41711;SDS011;27399;51.516;13.670;2023-08-17T14:04:54;9.13;;;5.15;;
41711;SDS011;27399;51.516;13.670;2023-08-17T14:07:20;6.60;;;4.55;;
41711;SDS011;27399;51.516;13.670;2023-08-17T14:09:46;7.50;;;4.72;;
41711;SDS011;27399;51.516;13.670;2023-08-17T14:12:11;6.68;;;4.75;;
41711;SDS011;27399;51.516;13.670;2023-08-17T14:14:37;6.65;;;4.72;;
41711;SDS011;27399;51.516;13.670;2023-08-17T14:17:02;6.63;;;4.57;;
41711;SDS011;27399;51.516;13.670;2023-08-17T14:19:28;7.93;;;4.47;;
41711;SDS011;27399;51.516;13.670;2023-08-17T14:21:54;8.38;;;4.45;;
41711;SDS011;27399;51.516;13.670;2023-08-17T14:24:20;7.32;;;3.80;;
41711;SDS011;27399;51.516;13.670;2023-08-17T14:26:45;7.95;;;4.28;;
41711;SDS011;27399;51.516;13.670;2023-08-17T14:29:11;6.35;;;4.72;;
41711;SDS011;27399;51.516;13.670;2023-08-17T14:31:37;7.47;;;4.90;;
41711;SDS011;27399;51.516;13.670;2023-08-17T14:34:02;4.45;;;3.88;;
41711;SDS011;27399;51.516;13.670;2023-08-17T14:36:28;6.85;;;4.13;;
41711;SDS011;27399;51.516;13.670;2023-08-17T14:38:54;6.03;;;4.38;;
41711;SDS011;27399;51.516;13.670;2023-08-17T14:41:19;7.45;;;4.65;;
41711;SDS011;27399;51.516;13.670;2023-08-17T14:43:45;6.03;;;4.53;;
41711;SDS011;27399;51.516;13.670;2023-08-17T14:46:10;8.43;;;4.28;;
41711;SDS011;27399;51.516;13.670;2023-08-17T14:48:36;7.07;;;4.63;;